Virtual Norwegian is not affiliated with Norwegian Air Shuttle in any way.
If you are looking for the real "Norwegian", or you wish to book Norwegian flights, please visit Norwegian.com


We use cookies to ensure you get the best experience on our website.   ACCEPT

LPMA - FNC - Funchal (Madeira)

General Info Alternate Airport
ICAO: LPMA Elevation: 192 ft ICAO: LPPS
IATA: FNC Country: Portugal IATA: PXO
City: Funchal Charts: Log in to view charts City: Porto Santo
Name: Madeira Hub: No Name Porto Santo
General Info
ICAO: LPMA
IATA: FNC
City: Funchal
Name: Madeira
Elevation: 192 ft
Country: Portugal
Charts: Log in to view charts
Hub: No
 
Alternate Airport
ICAO: LPPS
IATA: PXO
City: Porto Santo
Name: Porto Santo

Weather
240830Z 02015KT 9999 FEW015 25/16 Q1018
Weather
240830Z 02015KT 9999 FEW015 25/16 Q1018

Runway Info
05
Length ILS/LOC Heading
2781 m N/A 045
23
Length ILS/LOC Heading
2781 m N/A 225

NOTAMs
NOTAMs currently unavailable.
NOTAMs
NOTAMs currently unavailable

Route map
Airport
Airport (hub)